Davenport, WA (99122)

2:30 PM PDT on April 25, 2017 (GMT -0700)
AC/DT | | Change Station

Elev 2418 ft 47.65 °N, 118.16 °W | Updated 19 seconds ago

Partly Cloudy
Partly Cloudy
54.8 °F
Feels Like 54.8 °F
N
12.0
Wind Variable Wind from SSW

Today
High -- | Low -- °F
--% Chance of Precip.
Yesterday
High -- | Low -- °F
Precip. -- in
Pressure 29.88 in
Visibility 10.0 miles
Clouds Few 2600 ft
Scattered Clouds 3300 ft
Scattered Clouds 5500 ft
Mostly Cloudy 9000 ft
Dew Point 41 °F
Humidity 60%
Rainfall 0.00 in
Snow Depth Not available.
5:44 AM 7:57 PM
Waning Crescent, 1% visible
SPECI KSKA 252116Z 20008KT 10SM -RA FEW026 SCT033 SCT055 BKN090 09/07 A2985 RMK AO2A RAE03RAB16 SLP117
Pressure 29.88 in
Visibility 10.0 miles
Clouds Few 2600 ft
Scattered Clouds 3300 ft
Scattered Clouds 5500 ft
Mostly Cloudy 9000 ft
Dew Point 41 °F
Humidity 60%
Rainfall 0.00 in
Snow Depth Not available.
5:44 AM 7:57 PM
Waning Crescent, 1% visible
SPECI KSKA 252116Z 20008KT 10SM -RA FEW026 SCT033 SCT055 BKN090 09/07 A2985 RMK AO2A RAE03RAB16 SLP117

Get Severe Weather Alerts

Thanks for signing up!

Be on the lookout for a verification email in your inbox.

You'll start receiving the daily forecast at 8 AM.

×

10-Day Weather Forecast

Almanac

Astronomy

Apr. 25, 2017 Rise Set
Actual Time
Civil Twilight
Nautical Twilight
Astronomical Twilight
Moon
Length of Visible Light
Length of Day
Tomorrow will be .
, % of the Moon is Illuminated

Today's Extremes

State Highs State Lows

Community

WunderPhotos

WunderBlog® & News

Nearby

Air Quality

  Air Quality AQ Index Pollutant
Not available.

Snow Depth

Station Depth Elevation

Earthquake Activity

City Distance Mag. Time & Date
Minimum magnitude displayed is 2.5.

Coastal Water Temperatures

Place Temperature

Stations

Nearby Weather Stations

Station Location Temp. Windchill Dew Point Humidity Wind Precip. Elev Updated Type
                   

Watches & Warnings

There are currently no watches in effect.